Terminal Aerodrome Forecast
Issued by NWS Paducah, KY

Home | Current Version | Previous Version | Text Only | Print | Product List | Glossary On
Versions: 1 2 3 4 5 6 7 8 9 10 11 12 13 14 15 16 17 18 19 20 21 22
000
FTUS43 KPAH 051720
TAFEVV
TAF
KEVV 051720Z 0518/0618 VRB04KT 6SM HZ SCT030 BKN250
     FM060400 00000KT 4SM BR SCT250
     FM061500 21010KT P6SM SCT030=

USA.gov is the U.S. government's official web portal to all federal, state and local government web resources and services.